Time;durP1;ratioP1;P1;durP2;ratioP2;P2;SDS_P1;SDS_P2;PMS_P1;PMS_P2;Temp;Humidity;BMP_temperature;BMP_pressure;BME280_temperature;BME280_humidity;BME280_pressure;Samples;Min_cycle;Max_cycle;Signal;HPM_P1;HPM_P2
2023/08/10 00:00:50;;;;;;;0.20;0.20;;;;;;;;;;6267681;22;20012;-87
2023/08/10 00:06:52;;;;;;;0.10;0.10;;;;;;;;;;6234109;22;20020;-87
2023/08/10 00:09:48;;;;;;;0.20;0.20;;;;;;;;;;6183573;23;20028;-87
2023/08/10 00:12:14;;;;;;;0.20;0.20;;;;;;;;;;6208530;22;20546;-87
2023/08/10 00:15:00;;;;;;;0.10;0.10;;;;;;;;;;6235948;23;20023;-88
2023/08/10 00:17:41;;;;;;;0.10;0.10;;;;;;;;;;6234839;23;20030;-86
2023/08/10 00:20:10;;;;;;;0.10;0.10;;;;;;;;;;6262606;23;20023;-88
2023/08/10 00:23:08;;;;;;;0.30;0.30;;;;;;;;;;6212932;23;20008;-88
2023/08/10 00:29:10;;;;;;;0.20;0.20;;;;;;;;;;6279852;22;20015;-87
2023/08/10 00:31:41;;;;;;;0.03;0.03;;;;;;;;;;6236493;22;20020;-87
2023/08/10 00:34:12;;;;;;;0.10;0.10;;;;;;;;;;6229496;22;20004;-87
2023/08/10 00:36:41;;;;;;;0.20;0.20;;;;;;;;;;6211235;23;20016;-87
2023/08/10 00:39:21;;;;;;;0.17;0.17;;;;;;;;;;6230820;23;20001;-88
2023/08/10 00:45:34;;;;;;;0.10;0.10;;;;;;;;;;6182223;23;20472;-87
2023/08/10 00:48:00;;;;;;;0.17;0.17;;;;;;;;;;6124719;23;20076;-88
2023/08/10 00:50:28;;;;;;;0.20;0.20;;;;;;;;;;6236426;23;20262;-87
2023/08/10 00:53:04;;;;;;;0.20;0.20;;;;;;;;;;6267604;22;20041;-87
2023/08/10 00:56:03;;;;;;;0.10;0.10;;;;;;;;;;6213124;23;20028;-88
2023/08/10 00:58:34;;;;;;;0.15;0.15;;;;;;;;;;6262137;23;20018;-88
2023/08/10 01:01:20;;;;;;;0.20;0.20;;;;;;;;;;6262634;22;20023;-86
2023/08/10 01:03:46;;;;;;;0.00;0.00;;;;;;;;;;6240484;23;20017;-87
2023/08/10 01:07:03;;;;;;;0.20;0.20;;;;;;;;;;6238545;23;20012;-89
2023/08/10 01:09:50;;;;;;;0.20;0.20;;;;;;;;;;6273289;22;20011;-88
2023/08/10 01:12:28;;;;;;;0.20;0.20;;;;;;;;;;6273358;22;20057;-87
2023/08/10 01:15:04;;;;;;;0.10;0.10;;;;;;;;;;6243531;23;20066;-86
2023/08/10 01:17:36;;;;;;;0.20;0.20;;;;;;;;;;6265088;22;20009;-84
2023/08/10 01:20:07;;;;;;;0.20;0.20;;;;;;;;;;6237155;23;20012;-87
2023/08/10 01:22:54;;;;;;;0.20;0.20;;;;;;;;;;6242230;23;20021;-87
2023/08/10 01:25:25;;;;;;;0.30;0.30;;;;;;;;;;6281337;22;20020;-87
2023/08/10 01:27:53;;;;;;;0.30;0.30;;;;;;;;;;6242498;22;20027;-88
2023/08/10 01:30:48;;;;;;;0.10;0.10;;;;;;;;;;6246724;23;20031;-89
2023/08/10 01:33:23;;;;;;;0.20;0.20;;;;;;;;;;6242315;22;20065;-86
2023/08/10 01:36:08;;;;;;;0.10;0.10;;;;;;;;;;6267169;22;20040;-87
2023/08/10 01:38:37;;;;;;;0.10;0.10;;;;;;;;;;6266826;23;20016;-85
2023/08/10 01:41:04;;;;;;;0.17;0.17;;;;;;;;;;6266589;23;20048;-86
2023/08/10 01:43:33;;;;;;;0.10;0.10;;;;;;;;;;6263731;22;20331;-87
2023/08/10 01:46:00;;;;;;;0.20;0.20;;;;;;;;;;6241785;22;20026;-87
2023/08/10 01:48:33;;;;;;;0.20;0.20;;;;;;;;;;6242158;22;20020;-88
2023/08/10 01:51:04;;;;;;;0.10;0.10;;;;;;;;;;6216983;23;20000;-89
2023/08/10 01:53:33;;;;;;;0.10;0.10;;;;;;;;;;6242924;23;20007;-88
2023/08/10 01:56:20;;;;;;;0.15;0.15;;;;;;;;;;6242302;23;20064;-89
2023/08/10 01:58:48;;;;;;;0.10;0.10;;;;;;;;;;6235848;23;20099;-87
2023/08/10 02:01:18;;;;;;;0.13;0.13;;;;;;;;;;6265463;22;20078;-89
2023/08/10 02:03:54;;;;;;;0.20;0.20;;;;;;;;;;6268938;23;20047;-88
2023/08/10 02:06:53;;;;;;;0.20;0.20;;;;;;;;;;6273267;23;20354;-88
2023/08/10 02:09:22;;;;;;;0.10;0.10;;;;;;;;;;6214370;23;20087;-87
2023/08/10 02:11:48;;;;;;;0.10;0.10;;;;;;;;;;6241737;23;20007;-88
2023/08/10 02:14:19;;;;;;;0.10;0.10;;;;;;;;;;6249078;22;20029;-89
2023/08/10 02:16:47;;;;;;;0.10;0.10;;;;;;;;;;6217494;23;20442;-88
2023/08/10 02:19:16;;;;;;;0.10;0.10;;;;;;;;;;6267704;22;20048;-88
2023/08/10 02:21:43;;;;;;;0.10;0.10;;;;;;;;;;6242489;23;19996;-88
2023/08/10 02:24:10;;;;;;;0.10;0.10;;;;;;;;;;6267952;22;20016;-88
2023/08/10 02:26:36;;;;;;;0.10;0.10;;;;;;;;;;6242314;23;20011;-86
2023/08/10 02:29:03;;;;;;;0.30;0.30;;;;;;;;;;6279103;22;20012;-87
2023/08/10 02:31:31;;;;;;;0.20;0.20;;;;;;;;;;6264121;22;20037;-89
2023/08/10 02:33:58;;;;;;;0.20;0.20;;;;;;;;;;6251474;22;20074;-88
2023/08/10 02:36:26;;;;;;;0.20;0.20;;;;;;;;;;6243047;23;20024;-89
2023/08/10 02:38:52;;;;;;;0.20;0.20;;;;;;;;;;6216337;23;20027;-89
2023/08/10 02:41:18;;;;;;;0.17;0.17;;;;;;;;;;6256268;22;20370;-88
2023/08/10 02:43:44;;;;;;;0.20;0.20;;;;;;;;;;6238793;23;20027;-89
2023/08/10 02:46:12;;;;;;;0.20;0.20;;;;;;;;;;6263779;23;20016;-87
2023/08/10 02:48:48;;;;;;;0.20;0.20;;;;;;;;;;6260692;22;20056;-87
2023/08/10 02:51:16;;;;;;;0.15;0.15;;;;;;;;;;6266298;23;20024;-88
2023/08/10 02:53:45;;;;;;;0.20;0.20;;;;;;;;;;6227481;22;20389;-86
2023/08/10 02:56:13;;;;;;;0.20;0.20;;;;;;;;;;6231372;23;20057;-88
2023/08/10 02:58:41;;;;;;;0.10;0.10;;;;;;;;;;6236392;23;20074;-88
2023/08/10 03:01:09;;;;;;;0.20;0.20;;;;;;;;;;6236236;23;20000;-88
2023/08/10 03:03:35;;;;;;;0.30;0.30;;;;;;;;;;6242330;23;20028;-87
2023/08/10 03:06:10;;;;;;;0.13;0.13;;;;;;;;;;6262304;22;20017;-88
2023/08/10 03:08:43;;;;;;;0.20;0.20;;;;;;;;;;6241857;23;20347;-87
2023/08/10 03:11:11;;;;;;;0.28;0.28;;;;;;;;;;6267022;22;20078;-88
2023/08/10 03:13:47;;;;;;;0.10;0.10;;;;;;;;;;6267028;22;20012;-87
2023/08/10 03:16:32;;;;;;;0.20;0.20;;;;;;;;;;6266837;23;20052;-87
2023/08/10 03:19:04;;;;;;;0.20;0.20;;;;;;;;;;6242880;23;20042;-88
2023/08/10 03:21:40;;;;;;;0.20;0.20;;;;;;;;;;6263907;22;20066;-88
2023/08/10 03:24:16;;;;;;;0.10;0.10;;;;;;;;;;6256724;22;20023;-88
2023/08/10 03:26:46;;;;;;;0.30;0.30;;;;;;;;;;6238966;23;20015;-88
2023/08/10 03:29:13;;;;;;;0.10;0.10;;;;;;;;;;6233502;23;20051;-88
2023/08/10 03:31:51;;;;;;;0.20;0.20;;;;;;;;;;6267260;22;20061;-87
2023/08/10 03:34:22;;;;;;;0.20;0.20;;;;;;;;;;6265414;22;20016;-87
2023/08/10 03:36:51;;;;;;;0.10;0.10;;;;;;;;;;6237817;23;20037;-88
2023/08/10 03:39:23;;;;;;;;;;;;;;;;;;6268573;22;20019;-89
2023/08/10 03:41:54;;;;;;;0.20;0.20;;;;;;;;;;6240191;23;19933;-87
2023/08/10 03:44:21;;;;;;;0.20;0.20;;;;;;;;;;6236659;23;20027;-89
2023/08/10 03:46:53;;;;;;;0.20;0.20;;;;;;;;;;6240654;22;20024;-89
2023/08/10 03:49:39;;;;;;;0.20;0.20;;;;;;;;;;6216754;23;20012;-88
2023/08/10 03:52:20;;;;;;;0.22;0.22;;;;;;;;;;6259384;22;20027;-90
2023/08/10 03:54:49;;;;;;;0.20;0.20;;;;;;;;;;6238545;23;20000;-88
2023/08/10 03:57:20;;;;;;;0.30;0.30;;;;;;;;;;6265653;23;20020;-89
2023/08/10 03:59:53;;;;;;;0.30;0.30;;;;;;;;;;6264144;23;20042;-90
2023/08/10 04:02:40;;;;;;;0.13;0.13;;;;;;;;;;6239923;23;20023;-88
2023/08/10 04:05:10;;;;;;;0.30;0.30;;;;;;;;;;6238501;23;20022;-89
2023/08/10 04:07:39;;;;;;;0.30;0.30;;;;;;;;;;6267458;22;19996;-87
2023/08/10 04:10:19;;;;;;;0.10;0.10;;;;;;;;;;6267545;22;20018;-88
2023/08/10 04:12:48;;;;;;;0.10;0.10;;;;;;;;;;6239921;22;20027;-88
2023/08/10 04:15:34;;;;;;;0.20;0.20;;;;;;;;;;6267781;22;20061;-87
2023/08/10 04:18:02;;;;;;;0.17;0.17;;;;;;;;;;6243479;22;20008;-89
2023/08/10 04:20:28;;;;;;;0.15;0.15;;;;;;;;;;6237532;23;20069;-88
2023/08/10 04:22:57;;;;;;;0.10;0.10;;;;;;;;;;6238249;22;20351;-87
2023/08/10 04:25:33;;;;;;;0.20;0.20;;;;;;;;;;6266573;23;20012;-88
2023/08/10 04:28:02;;;;;;;0.10;0.10;;;;;;;;;;6240405;23;20008;-87
2023/08/10 04:30:29;;;;;;;0.20;0.20;;;;;;;;;;6240674;23;20012;-89
2023/08/10 04:33:06;;;;;;;0.10;0.10;;;;;;;;;;6241883;23;20023;-88
2023/08/10 04:35:42;;;;;;;0.20;0.20;;;;;;;;;;6235942;22;20089;-88
2023/08/10 04:38:27;;;;;;;0.10;0.10;;;;;;;;;;6224063;23;20050;-89
2023/08/10 04:40:58;;;;;;;0.10;0.10;;;;;;;;;;6266006;23;20056;-90
2023/08/10 04:43:41;;;;;;;0.20;0.20;;;;;;;;;;6266190;23;20012;-88
2023/08/10 04:46:08;;;;;;;0.20;0.20;;;;;;;;;;6262580;23;20025;-88
2023/08/10 04:48:38;;;;;;;0.20;0.20;;;;;;;;;;6238963;23;20027;-90
2023/08/10 04:51:07;;;;;;;0.20;0.20;;;;;;;;;;6266356;23;20012;-90
2023/08/10 04:53:37;;;;;;;0.20;0.20;;;;;;;;;;6266260;23;20024;-88
2023/08/10 04:56:03;;;;;;;0.20;0.20;;;;;;;;;;6234694;23;20020;-88
2023/08/10 04:58:35;;;;;;;0.28;0.28;;;;;;;;;;6237460;23;20008;-91
2023/08/10 05:01:02;;;;;;;0.20;0.20;;;;;;;;;;6264733;22;20020;-89
2023/08/10 05:03:40;;;;;;;0.20;0.20;;;;;;;;;;6260800;23;20083;-89
2023/08/10 05:06:07;;;;;;;0.10;0.10;;;;;;;;;;6232171;23;20027;-88
2023/08/10 05:08:36;;;;;;;0.10;0.10;;;;;;;;;;6263062;23;20020;-88
2023/08/10 05:11:02;;;;;;;0.20;0.20;;;;;;;;;;6238104;22;20016;-90
2023/08/10 05:13:33;;;;;;;0.10;0.10;;;;;;;;;;6240485;22;20004;-90
2023/08/10 05:15:59;;;;;;;0.20;0.20;;;;;;;;;;6236181;23;20025;-88
2023/08/10 05:18:30;;;;;;;0.20;0.20;;;;;;;;;;6263542;23;20012;-89
2023/08/10 05:21:08;;;;;;;0.10;0.10;;;;;;;;;;6263969;22;20004;-89
2023/08/10 05:23:35;;;;;;;0.10;0.10;;;;;;;;;;6238642;22;20042;-88
2023/08/10 05:26:19;;;;;;;0.20;0.20;;;;;;;;;;6242592;23;20060;-88
2023/08/10 05:28:50;;;;;;;0.20;0.20;;;;;;;;;;6238970;22;20052;-91
2023/08/10 05:31:16;;;;;;;0.22;0.22;;;;;;;;;;6247413;22;20031;-90
2023/08/10 05:37:11;;;;;;;0.10;0.10;;;;;;;;;;6261335;22;20080;-89
2023/08/10 05:39:40;;;;;;;0.20;0.20;;;;;;;;;;6265107;23;20020;-89
2023/08/10 05:42:08;;;;;;;0.17;0.17;;;;;;;;;;6238828;22;20020;-90
2023/08/10 05:44:34;;;;;;;0.13;0.13;;;;;;;;;;6262347;22;20012;-91
2023/08/10 05:47:22;;;;;;;0.10;0.10;;;;;;;;;;6241623;22;20016;-92
2023/08/10 05:49:59;;;;;;;0.10;0.10;;;;;;;;;;6265893;23;20060;-93
2023/08/10 05:52:40;;;;;;;0.10;0.10;;;;;;;;;;6241914;22;20024;-90
2023/08/10 05:55:25;;;;;;;0.10;0.10;;;;;;;;;;6265386;22;20024;-92
2023/08/10 05:57:52;;;;;;;0.10;0.10;;;;;;;;;;6243371;23;20016;-92
2023/08/10 06:00:27;;;;;;;0.10;0.10;;;;;;;;;;6265255;22;20024;-90
2023/08/10 06:02:53;;;;;;;;;;;;;;;;;;6243224;22;20000;-92
2023/08/10 06:05:24;;;;;;;0.20;0.20;;;;;;;;;;6268126;23;19951;-90
2023/08/10 06:08:07;;;;;;;0.20;0.20;;;;;;;;;;6268368;22;20023;-91
2023/08/10 06:10:33;;;;;;;0.20;0.20;;;;;;;;;;6241832;22;20028;-90
2023/08/10 06:13:00;;;;;;;0.20;0.20;;;;;;;;;;6242016;23;20016;-92
2023/08/10 06:15:29;;;;;;;0.10;0.10;;;;;;;;;;6216288;23;20077;-90
2023/08/10 06:17:56;;;;;;;0.17;0.17;;;;;;;;;;6266195;23;20048;-91
2023/08/10 06:20:22;;;;;;;0.20;0.20;;;;;;;;;;6266337;22;20001;-90
2023/08/10 06:22:50;;;;;;;0.10;0.10;;;;;;;;;;6242110;22;20027;-92
2023/08/10 06:25:17;;;;;;;0.10;0.10;;;;;;;;;;6215915;23;20065;-90
2023/08/10 06:27:44;;;;;;;0.20;0.20;;;;;;;;;;6242205;22;20028;-90
2023/08/10 06:30:16;;;;;;;0.10;0.10;;;;;;;;;;6267556;22;20064;-89
2023/08/10 06:32:52;;;;;;;0.20;0.20;;;;;;;;;;6242473;23;20641;-90
2023/08/10 06:35:25;;;;;;;0.20;0.20;;;;;;;;;;6267360;22;20011;-92
2023/08/10 06:37:51;;;;;;;0.15;0.15;;;;;;;;;;6243109;22;20030;-91
2023/08/10 06:40:44;;;;;;;0.20;0.20;;;;;;;;;;6266717;23;20049;-93
2023/08/10 06:50:03;;;;;;;0.20;0.20;;;;;;;;;;6186232;22;20012;-92
2023/08/10 06:52:31;;;;;;;0.10;0.10;;;;;;;;;;6151639;22;20018;-90
2023/08/10 06:55:02;;;;;;;0.10;0.10;;;;;;;;;;6193722;23;20016;-91
2023/08/10 06:57:36;;;;;;;0.22;0.22;;;;;;;;;;6242432;22;20001;-91
2023/08/10 07:03:14;;;;;;;0.10;0.10;;;;;;;;;;6273597;22;20035;-91
2023/08/10 07:05:52;;;;;;;0.10;0.10;;;;;;;;;;6241979;23;20046;-91
2023/08/10 07:11:21;;;;;;;0.10;0.10;;;;;;;;;;6266122;23;20029;-92
2023/08/10 07:13:50;;;;;;;0.15;0.15;;;;;;;;;;6260101;22;20020;-93
2023/08/10 07:16:20;;;;;;;0.20;0.20;;;;;;;;;;6243433;22;20037;-93
2023/08/10 07:21:33;;;;;;;0.10;0.10;;;;;;;;;;6250339;22;20009;-93
2023/08/10 07:24:00;;;;;;;0.15;0.15;;;;;;;;;;6218149;22;20041;-92
2023/08/10 07:26:35;;;;;;;0.20;0.20;;;;;;;;;;6239968;22;20020;-92
2023/08/10 07:29:03;;;;;;;0.10;0.10;;;;;;;;;;6218268;22;20032;-93
2023/08/10 07:31:31;;;;;;;0.10;0.10;;;;;;;;;;6217946;22;20021;-94
2023/08/10 07:34:09;;;;;;;0.10;0.10;;;;;;;;;;6214856;22;20020;-92
2023/08/10 07:36:39;;;;;;;0.10;0.10;;;;;;;;;;6241904;22;20091;-95
2023/08/10 07:39:10;;;;;;;0.20;0.20;;;;;;;;;;6193967;22;20008;-93
2023/08/10 07:41:39;;;;;;;0.15;0.15;;;;;;;;;;6217933;22;20027;-93
2023/08/10 07:44:08;;;;;;;0.20;0.20;;;;;;;;;;6219220;22;20024;-93
2023/08/10 07:46:46;;;;;;;0.20;0.20;;;;;;;;;;6218183;22;20011;-90
2023/08/10 07:49:32;;;;;;;0.17;0.17;;;;;;;;;;6243017;22;20024;-92
2023/08/10 07:52:01;;;;;;;0.10;0.10;;;;;;;;;;6218355;22;20036;-93
2023/08/10 08:52:56;;;;;;;0.10;0.10;;;;;;;;;;6256059;22;20034;-90
2023/08/10 08:55:26;;;;;;;0.00;0.00;;;;;;;;;;6218767;22;20103;-91
2023/08/10 08:57:55;;;;;;;0.10;0.10;;;;;;;;;;6218420;22;20016;-91
2023/08/10 09:00:35;;;;;;;0.20;0.20;;;;;;;;;;6245651;22;20004;-89
2023/08/10 09:03:04;;;;;;;0.20;0.20;;;;;;;;;;6242156;22;20008;-92
2023/08/10 09:05:31;;;;;;;0.10;0.10;;;;;;;;;;6217661;22;20004;-94
2023/08/10 09:08:04;;;;;;;0.10;0.10;;;;;;;;;;6217026;22;20076;-92
2023/08/10 09:10:37;;;;;;;0.20;0.20;;;;;;;;;;6218565;22;20001;-92
2023/08/10 09:19:34;;;;;;;0.10;0.10;;;;;;;;;;6165008;22;20700;-90
2023/08/10 09:22:01;;;;;;;0.10;0.10;;;;;;;;;;6211261;22;20072;-90
2023/08/10 09:24:29;;;;;;;0.20;0.20;;;;;;;;;;6212764;23;20004;-89
2023/08/10 09:27:04;;;;;;;0.20;0.20;;;;;;;;;;6316396;22;20031;-90
2023/08/10 09:32:42;;;;;;;0.20;0.20;;;;;;;;;;6212936;22;20020;-90
2023/08/10 09:35:18;;;;;;;0.10;0.10;;;;;;;;;;6211178;22;20024;-90
2023/08/10 09:37:47;;;;;;;0.10;0.10;;;;;;;;;;6209849;23;20017;-90
2023/08/10 09:40:15;;;;;;;0.13;0.13;;;;;;;;;;6210446;23;20046;-90
2023/08/10 09:42:42;;;;;;;0.10;0.10;;;;;;;;;;6211838;22;20054;-91
2023/08/10 09:45:19;;;;;;;0.10;0.10;;;;;;;;;;6233348;22;20011;-88
2023/08/10 09:47:50;;;;;;;0.25;0.25;;;;;;;;;;6210641;23;20068;-88
2023/08/10 09:50:23;;;;;;;0.10;0.10;;;;;;;;;;6211375;23;20054;-90
2023/08/10 09:52:52;;;;;;;0.20;0.20;;;;;;;;;;6212132;22;20023;-89
2023/08/10 09:59:00;;;;;;;0.10;0.10;;;;;;;;;;6205256;23;20058;-90
2023/08/10 10:01:27;;;;;;;0.10;0.10;;;;;;;;;;6191458;23;20050;-91
2023/08/10 10:04:12;;;;;;;0.10;0.10;;;;;;;;;;6236241;22;20005;-90
2023/08/10 10:06:40;;;;;;;0.10;0.10;;;;;;;;;;6210599;23;20021;-91
2023/08/10 10:09:07;;;;;;;0.03;0.03;;;;;;;;;;6209710;23;20016;-89
2023/08/10 10:11:40;;;;;;;0.03;0.03;;;;;;;;;;6236536;23;20017;-91
2023/08/10 10:14:07;;;;;;;0.10;0.10;;;;;;;;;;6183875;23;20031;-90
2023/08/10 10:16:35;;;;;;;0.20;0.20;;;;;;;;;;6211986;22;20053;-90
2023/08/10 10:19:14;;;;;;;0.10;0.10;;;;;;;;;;6237785;23;20013;-92
2023/08/10 10:24:39;;;;;;;0.10;0.10;;;;;;;;;;6344312;22;20024;-91
2023/08/10 10:27:17;;;;;;;0.00;0.00;;;;;;;;;;6221377;22;20031;-90
2023/08/10 10:29:49;;;;;;;0.00;0.00;;;;;;;;;;6204780;22;20030;-90
2023/08/10 10:32:22;;;;;;;0.10;0.10;;;;;;;;;;6209783;23;20020;-91
2023/08/10 10:34:53;;;;;;;0.10;0.10;;;;;;;;;;6342839;22;20401;-90
2023/08/10 10:40:53;;;;;;;0.03;0.03;;;;;;;;;;6237607;22;20047;-91
2023/08/10 10:43:20;;;;;;;0.03;0.03;;;;;;;;;;6210881;23;20027;-91
2023/08/10 10:45:51;;;;;;;0.10;0.10;;;;;;;;;;6236663;23;20013;-91
2023/08/10 10:48:34;;;;;;;0.10;0.10;;;;;;;;;;6239152;22;20050;-89
2023/08/10 10:51:03;;;;;;;0.20;0.20;;;;;;;;;;6212029;22;20052;-91
2023/08/10 10:53:30;;;;;;;0.20;0.20;;;;;;;;;;6292514;22;20025;-90
2023/08/10 10:55:57;;;;;;;0.13;0.13;;;;;;;;;;6339521;22;20040;-89
2023/08/10 10:58:28;;;;;;;0.10;0.10;;;;;;;;;;6344384;22;20008;-90
2023/08/10 11:00:55;;;;;;;0.00;0.00;;;;;;;;;;6212433;23;20021;-90
2023/08/10 11:03:29;;;;;;;0.15;0.15;;;;;;;;;;6233532;22;20060;-91
2023/08/10 11:05:55;;;;;;;0.10;0.10;;;;;;;;;;6208357;23;20020;-87
2023/08/10 11:08:22;;;;;;;0.20;0.20;;;;;;;;;;6211947;23;20021;-90
2023/08/10 11:10:52;;;;;;;0.10;0.10;;;;;;;;;;6210213;23;20042;-89
2023/08/10 11:13:28;;;;;;;0.00;0.00;;;;;;;;;;6237058;23;20017;-88
2023/08/10 11:15:58;;;;;;;0.10;0.10;;;;;;;;;;6213805;22;20001;-89
2023/08/10 11:18:31;;;;;;;0.20;0.20;;;;;;;;;;6237317;23;20073;-91
2023/08/10 11:21:07;;;;;;;0.10;0.10;;;;;;;;;;6270566;22;20020;-88
2023/08/10 11:23:36;;;;;;;0.10;0.10;;;;;;;;;;6240598;22;20054;-90
2023/08/10 11:26:03;;;;;;;0.05;0.05;;;;;;;;;;6238572;23;20016;-89
2023/08/10 11:28:29;;;;;;;0.10;0.10;;;;;;;;;;6265432;23;20063;-88
2023/08/10 11:31:14;;;;;;;0.00;0.00;;;;;;;;;;6266214;23;20033;-90
2023/08/10 11:34:03;;;;;;;0.10;0.10;;;;;;;;;;6263778;23;20016;-90
2023/08/10 11:36:40;;;;;;;0.20;0.20;;;;;;;;;;6362415;22;20040;-90
2023/08/10 11:39:07;;;;;;;0.20;0.20;;;;;;;;;;6234545;23;20087;-90
2023/08/10 11:41:45;;;;;;;0.17;0.17;;;;;;;;;;6239654;23;20072;-88
2023/08/10 11:44:24;;;;;;;0.10;0.10;;;;;;;;;;6318953;22;20016;-88
2023/08/10 11:46:51;;;;;;;0.17;0.17;;;;;;;;;;6239980;23;20011;-89
2023/08/10 11:49:23;;;;;;;0.10;0.10;;;;;;;;;;6237933;23;20046;-89
2023/08/10 11:52:00;;;;;;;0.10;0.10;;;;;;;;;;6340408;22;20020;-88
2023/08/10 11:54:36;;;;;;;0.10;0.10;;;;;;;;;;6346557;22;20020;-88
2023/08/10 11:57:13;;;;;;;0.00;0.00;;;;;;;;;;6333821;22;20016;-90
2023/08/10 11:59:39;;;;;;;0.10;0.10;;;;;;;;;;6239696;23;20000;-89
2023/08/10 12:02:14;;;;;;;0.00;0.00;;;;;;;;;;6261620;22;20012;-89
2023/08/10 12:04:42;;;;;;;0.10;0.10;;;;;;;;;;6237837;23;20011;-89
2023/08/10 12:07:12;;;;;;;1.00;0.88;;;;;;;;;;6258289;22;20023;-89
2023/08/10 12:09:47;;;;;;;0.10;0.10;;;;;;;;;;6235721;23;20020;-88
2023/08/10 12:12:21;;;;;;;0.15;0.15;;;;;;;;;;6231788;22;20000;-90
2023/08/10 12:14:53;;;;;;;0.08;0.08;;;;;;;;;;6232290;23;20516;-90
2023/08/10 12:17:39;;;;;;;0.00;0.00;;;;;;;;;;6264474;23;20020;-89
2023/08/10 12:20:10;;;;;;;0.10;0.10;;;;;;;;;;6266766;22;20013;-90
2023/08/10 12:22:39;;;;;;;0.00;0.00;;;;;;;;;;6253329;22;20016;-89
2023/08/10 12:25:06;;;;;;;0.10;0.10;;;;;;;;;;6234444;22;20019;-88
2023/08/10 12:27:32;;;;;;;0.10;0.10;;;;;;;;;;6230419;23;20050;-89
2023/08/10 12:29:58;;;;;;;0.20;0.20;;;;;;;;;;6236696;23;20047;-90
2023/08/10 12:32:29;;;;;;;0.10;0.10;;;;;;;;;;6236805;23;20020;-89
2023/08/10 12:34:55;;;;;;;0.20;0.20;;;;;;;;;;6240330;23;20000;-90
2023/08/10 12:40:25;;;;;;;0.10;0.10;;;;;;;;;;6223587;23;20020;-89
2023/08/10 12:42:52;;;;;;;0.10;0.10;;;;;;;;;;6233618;23;20020;-89
2023/08/10 12:45:22;;;;;;;0.10;0.10;;;;;;;;;;6214144;23;20020;-91
2023/08/10 12:47:59;;;;;;;0.00;0.00;;;;;;;;;;6240015;23;20026;-92
2023/08/10 12:50:25;;;;;;;0.00;0.00;;;;;;;;;;6239976;23;20020;-91
2023/08/10 12:52:54;;;;;;;0.20;0.20;;;;;;;;;;6266881;22;20016;-92
2023/08/10 12:55:29;;;;;;;0.03;0.03;;;;;;;;;;6314473;22;20020;-92
2023/08/10 12:57:55;;;;;;;0.00;0.00;;;;;;;;;;6234928;23;20068;-92
2023/08/10 13:00:22;;;;;;;0.10;0.10;;;;;;;;;;6237832;23;20020;-92
2023/08/10 13:02:50;;;;;;;0.15;0.15;;;;;;;;;;6238373;23;20020;-91
2023/08/10 13:05:19;;;;;;;0.25;0.25;;;;;;;;;;6237139;23;20016;-90
2023/08/10 13:07:48;;;;;;;0.20;0.20;;;;;;;;;;6238551;23;20004;-91
2023/08/10 13:10:18;;;;;;;0.10;0.10;;;;;;;;;;6240103;23;20020;-91
2023/08/10 13:12:45;;;;;;;0.10;0.10;;;;;;;;;;6240793;23;20027;-91
2023/08/10 13:15:11;;;;;;;0.10;0.10;;;;;;;;;;6236426;23;20024;-90
2023/08/10 13:17:44;;;;;;;0.15;0.15;;;;;;;;;;6238503;23;20016;-92
2023/08/10 13:20:11;;;;;;;0.10;0.10;;;;;;;;;;6236580;23;20032;-91
2023/08/10 13:22:44;;;;;;;0.08;0.08;;;;;;;;;;6238156;23;20027;-91
2023/08/10 13:25:10;;;;;;;0.08;0.08;;;;;;;;;;6206169;23;20017;-92
2023/08/10 13:27:36;;;;;;;0.10;0.10;;;;;;;;;;6308191;22;20016;-89
2023/08/10 13:30:03;;;;;;;0.10;0.10;;;;;;;;;;6208837;22;20017;-93
2023/08/10 13:32:31;;;;;;;0.00;0.00;;;;;;;;;;6314093;22;20031;-91
2023/08/10 13:35:00;;;;;;;0.08;0.08;;;;;;;;;;6309805;22;20021;-90
2023/08/10 13:37:53;;;;;;;0.10;0.10;;;;;;;;;;6237348;22;20001;-91
2023/08/10 13:47:19;;;;;;;0.00;0.00;;;;;;;;;;6346342;22;20051;-90
2023/08/10 13:50:08;;;;;;;0.10;0.10;;;;;;;;;;6305350;22;20339;-91
2023/08/10 13:52:44;;;;;;;0.03;0.03;;;;;;;;;;6310388;22;20021;-89
2023/08/10 13:55:10;;;;;;;0.20;0.20;;;;;;;;;;6314987;22;20034;-90
2023/08/10 13:57:37;;;;;;;0.10;0.10;;;;;;;;;;6315149;22;20072;-90
2023/08/10 14:00:05;;;;;;;0.57;0.52;;;;;;;;;;6319916;22;20021;-91
2023/08/10 14:07:43;;;;;;;0.00;0.00;;;;;;;;;;6249570;22;20032;-92
2023/08/10 14:10:20;;;;;;;0.03;0.03;;;;;;;;;;6269435;22;20020;-91
2023/08/10 14:13:26;;;;;;;0.00;0.00;;;;;;;;;;6253745;22;20071;-90
2023/08/10 14:16:00;;;;;;;0.00;0.00;;;;;;;;;;6218102;23;20000;-92
2023/08/10 14:24:08;;;;;;;0.00;0.00;;;;;;;;;;6261775;22;20028;-90
2023/08/10 14:26:47;;;;;;;0.03;0.03;;;;;;;;;;6188220;22;20011;-91
2023/08/10 14:34:50;;;;;;;0.00;0.00;;;;;;;;;;6232730;22;20324;-92
2023/08/10 14:37:17;;;;;;;0.10;0.10;;;;;;;;;;6284953;22;20020;-91
2023/08/10 14:39:47;;;;;;;0.10;0.10;;;;;;;;;;6241344;22;20046;-90
2023/08/10 14:42:13;;;;;;;0.00;0.00;;;;;;;;;;6216180;23;20071;-91
2023/08/10 14:44:59;;;;;;;0.00;0.00;;;;;;;;;;6243134;22;20443;-90
2023/08/10 14:47:25;;;;;;;0.10;0.10;;;;;;;;;;6218675;23;20051;-91
2023/08/10 14:49:51;;;;;;;0.00;0.00;;;;;;;;;;6218309;23;20016;-91
2023/08/10 15:00:05;;;;;;;0.00;0.00;;;;;;;;;;6251057;22;20020;-89
2023/08/10 16:59:50;;;;;;;0.05;0.05;;;;;;;;;;6248475;23;20018;-88
2023/08/10 17:02:51;;;;;;;0.10;0.10;;;;;;;;;;6271379;22;20021;-89
2023/08/10 17:15:09;;;;;;;0.00;0.00;;;;;;;;;;6273511;22;20024;-87
2023/08/10 17:21:38;;;;;;;0.00;0.00;;;;;;;;;;6247781;23;20019;-90
2023/08/10 17:24:32;;;;;;;0.10;0.10;;;;;;;;;;6174838;22;20029;-89
2023/08/10 17:35:45;;;;;;;0.10;0.10;;;;;;;;;;6222085;22;20068;-87
2023/08/10 17:38:22;;;;;;;0.10;0.10;;;;;;;;;;6316538;22;20043;-88
2023/08/10 17:40:49;;;;;;;0.10;0.10;;;;;;;;;;6208196;23;20042;-87
2023/08/10 17:43:22;;;;;;;0.20;0.20;;;;;;;;;;6211579;22;20017;-88
2023/08/10 17:46:06;;;;;;;0.00;0.00;;;;;;;;;;6217545;23;20013;-88
2023/08/10 17:48:40;;;;;;;0.10;0.10;;;;;;;;;;6211867;23;20001;-87
2023/08/10 17:51:10;;;;;;;0.00;0.00;;;;;;;;;;6292226;22;20031;-89
2023/08/10 17:53:37;;;;;;;0.20;0.20;;;;;;;;;;6211938;22;20064;-88
2023/08/10 17:56:31;;;;;;;0.00;0.00;;;;;;;;;;6238330;22;20044;-88
2023/08/10 17:59:03;;;;;;;0.05;0.05;;;;;;;;;;6211411;22;20023;-87
2023/08/10 18:01:44;;;;;;;0.00;0.00;;;;;;;;;;6250432;22;20029;-88
2023/08/10 18:04:13;;;;;;;0.00;0.00;;;;;;;;;;6212468;23;20087;-88
2023/08/10 18:07:02;;;;;;;0.00;0.00;;;;;;;;;;6208626;22;20018;-89
2023/08/10 18:09:57;;;;;;;0.10;0.10;;;;;;;;;;6195930;22;20044;-88
2023/08/10 18:12:28;;;;;;;0.05;0.05;;;;;;;;;;6212498;22;20013;-88
2023/08/10 18:14:54;;;;;;;0.10;0.10;;;;;;;;;;6211833;23;20033;-86
2023/08/10 18:17:24;;;;;;;0.10;0.10;;;;;;;;;;6329903;22;20017;-88
2023/08/10 18:20:03;;;;;;;0.03;0.03;;;;;;;;;;6233586;22;20072;-88
2023/08/10 18:22:30;;;;;;;0.10;0.10;;;;;;;;;;6186400;23;20020;-89
2023/08/10 18:25:05;;;;;;;0.00;0.00;;;;;;;;;;6211596;22;20021;-89
2023/08/10 18:30:58;;;;;;;0.00;0.00;;;;;;;;;;6248461;23;20015;-89
2023/08/10 18:33:41;;;;;;;0.10;0.10;;;;;;;;;;6248628;22;20025;-88
2023/08/10 18:36:09;;;;;;;0.13;0.13;;;;;;;;;;6210429;22;20089;-88
2023/08/10 18:38:41;;;;;;;0.10;0.10;;;;;;;;;;6211755;22;20022;-89
2023/08/10 18:41:41;;;;;;;0.10;0.10;;;;;;;;;;6243233;22;20007;-88
2023/08/10 18:44:13;;;;;;;0.20;0.20;;;;;;;;;;6211357;22;20012;-88
2023/08/10 18:46:55;;;;;;;0.20;0.20;;;;;;;;;;6216130;22;20035;-87
2023/08/10 18:49:24;;;;;;;0.05;0.05;;;;;;;;;;6210487;22;20001;-88
2023/08/10 18:52:33;;;;;;;0.10;0.10;;;;;;;;;;6292844;22;20012;-87
2023/08/10 18:55:01;;;;;;;0.15;0.15;;;;;;;;;;6211070;22;20020;-89
2023/08/10 18:57:34;;;;;;;0.00;0.00;;;;;;;;;;6210631;23;20053;-88
2023/08/10 19:00:03;;;;;;;0.10;0.10;;;;;;;;;;6211781;22;20027;-88
2023/08/10 19:02:46;;;;;;;0.10;0.10;;;;;;;;;;6236607;23;20011;-88
2023/08/10 19:05:32;;;;;;;0.10;0.10;;;;;;;;;;6212671;22;20064;-89
2023/08/10 19:11:03;;;;;;;0.15;0.15;;;;;;;;;;6246770;23;19895;-88
2023/08/10 19:17:17;;;;;;;;;;;;;;;;;;;;;
2023/08/10 19:23:11;;;;;;;0.00;0.00;;;;;;;;;;6246652;23;20011;-89
2023/08/10 19:25:53;;;;;;;0.10;0.10;;;;;;;;;;6211406;23;20020;-88
2023/08/10 19:28:20;;;;;;;0.10;0.10;;;;;;;;;;6228534;23;20028;-91
2023/08/10 19:37:32;;;;;;;0.05;0.05;;;;;;;;;;6247792;23;20019;-88
2023/08/10 19:40:09;;;;;;;0.10;0.10;;;;;;;;;;6233339;23;20069;-88
2023/08/10 19:42:37;;;;;;;0.00;0.00;;;;;;;;;;6163154;23;20028;-88
2023/08/10 19:45:23;;;;;;;0.15;0.15;;;;;;;;;;6240340;22;20012;-87
2023/08/10 20:00:58;;;;;;;0.10;0.10;;;;;;;;;;6209546;22;20116;-87
2023/08/10 20:03:30;;;;;;;0.10;0.10;;;;;;;;;;6227311;22;20020;-90
2023/08/10 20:26:17;;;;;;;0.10;0.10;;;;;;;;;;6245159;22;20099;-90
2023/08/10 20:28:44;;;;;;;0.10;0.10;;;;;;;;;;6201193;23;20024;-88
2023/08/10 20:31:21;;;;;;;0.00;0.00;;;;;;;;;;6207380;23;20007;-88
2023/08/10 20:37:17;;;;;;;0.05;0.05;;;;;;;;;;6239905;23;20028;-88
2023/08/10 20:39:53;;;;;;;0.20;0.20;;;;;;;;;;6210808;22;20004;-87
2023/08/10 20:42:50;;;;;;;0.10;0.10;;;;;;;;;;6211213;22;20055;-89
2023/08/10 20:48:33;;;;;;;0.10;0.10;;;;;;;;;;6231975;23;20044;-87
2023/08/10 20:51:20;;;;;;;0.10;0.10;;;;;;;;;;6314844;22;20058;-89
2023/08/10 20:57:18;;;;;;;0.10;0.10;;;;;;;;;;6245444;23;20049;-89
2023/08/10 21:00:07;;;;;;;0.00;0.00;;;;;;;;;;6235265;22;20015;-87
2023/08/10 21:06:20;;;;;;;0.10;0.10;;;;;;;;;;6244039;23;20041;-88
2023/08/10 21:08:50;;;;;;;0.10;0.10;;;;;;;;;;6203885;22;20023;-90